Station: Badgingarra  

  Atmospheric Gas Attenuation - ITU Rec 676-11   ----------------- dB/100km -----------------
Date Time Temp RH % AH g/m3 Dew Point Wind Direction Speed kph Gust kph Barometer mB Rainfall Since 9am 24GHz 47GHz 76GHz 122GHz 134GHz 241GHz
31/08 09:50 17.3 85 12.52 14.8 11 17 1013.1 0 27.8 31.4 54.2 142.8 146.9 508.5
31/08 09:40 16.9 85 12.22 14.4 9 17 1013.1 0 27.2 31.0 53.1 140.1 143.4 496.1
31/08 09:30 16.6 86 12.15 14.2 9 13 1013.1 0 27.0 31.0 53.0 139.8 142.9 494.5
31/08 09:20 16.3 90 12.49 14.7 9 13 1013.1 0 27.8 31.7 54.7 144.3 148.4 513.6
31/08 09:10 16.1 91 12.47 14.6 6 11 1013.1 0 27.8 31.7 54.8 144.5 148.5 514.0
31/08 09:00 16.2 95 13.1 15.4 6 9 1013.1 0 29.1 32.8 57.6 151.8 157.6 545.6
31/08 08:50 15.4 96 12.61 14.8 6 9 1013.1 0 28.1 32.2 55.9 147.5 152.0 525.9
31/08 08:40 15.3 96 12.54 14.7 2 6 1013.1 0 28.0 32.2 55.7 146.8 151.1 523.0
31/08 08:30 14.9 96 12.24 14.3 2 4 1013.1 0 27.3 31.8 54.6 144.0 147.5 510.2
31/08 08:20 14.7 96 12.09 14.1 2 6 1013.1 0 27.0 31.6 54.1 142.6 145.7 503.9
31/08 08:10 14.7 97 12.21 14.2 2 4 1013.1 0 27.3 31.8 54.6 144.0 147.5 510.0
31/08 08:00 14.1 97 11.77 13.6 0 0 1013.1 0 26.4 31.2 53.1 139.9 142.1 491.4
31/08 07:50 13.6 97 11.42 13.1 0 0 1013.1 0 25.7 30.8 51.9 136.6 137.9 476.6
31/08 07:40 13 95 10.77 12.3 0 0 1013.1 0 24.3 29.8 49.4 130.0 129.5 447.3
31/08 07:30 12.8 96 10.75 12.2 0 0 1013.1 0 24.3 29.8 49.4 130.1 129.6 447.4
31/08 07:20 12.3 95 10.32 11.6 0 0 1013.1 0 23.4 29.3 47.8 125.9 124.2 428.7
31/08 07:10 12 95 10.13 11.3 0 0 1013.1 0 23.0 29.0 47.2 124.2 122.0 420.8
31/08 07:00 12.4 96 10.49 11.8 0 0 1013.1 0 23.7 29.5 48.5 127.7 126.5 436.6
31/08 06:50 12.7 95 10.58 12 0 0 1013.1 0 23.9 29.6 48.7 128.3 127.3 439.5
31/08 06:40 12.8 95 10.64 12.1 0 0 1013.1 0 24.0 29.7 48.9 128.8 128.0 441.9
31/08 06:30 13.1 96 10.96 12.5 0 0 1013.1 0 24.7 30.1 50.1 132.0 132.1 456.3
31/08 06:20 13.1 95 10.84 12.4 0 0 1013.1 0 24.4 29.9 49.6 130.6 130.4 450.2
31/08 06:10 12.8 95 10.64 12.1 0 0 1013.1 0 24.0 29.7 48.9 128.8 128.0 441.9
31/08 06:00 12.7 96 10.69 12.1 0 0 1013.1 0 24.1 29.8 49.2 129.5 128.9 445.0
31/08 05:50 13.1 95 10.84 12.4 0 0 1013.1 0 24.4 29.9 49.6 130.6 130.4 450.2
31/08 05:40 13.3 95 10.98 12.5 0 0 1013.1 0 24.7 30.1 50.1 131.9 132.1 456.1
31/08 05:30 13.6 96 11.3 13 2 4 1013.1 0 25.4 30.5 51.3 135.2 136.2 470.5
31/08 05:20 13.2 95 10.91 12.5 4 4 1013.1 0 24.6 30.0 49.9 131.3 131.2 453.2
31/08 05:10 13.1 95 10.84 12.3 4 6 1013.1 0 24.4 29.9 49.6 130.6 130.4 450.2
31/08 05:00 13.5 96 11.23 12.9 6 7 1013.1 0 25.3 30.5 51.1 134.5 135.3 467.6
31/08 04:50 13.4 95 11.04 12.6 6 6 1013.1 0 24.9 30.2 50.3 132.5 132.8 458.5
31/08 04:40 13.6 95 11.18 12.8 4 6 1013.1 0 25.1 30.3 50.8 133.8 134.4 464.4
31/08 04:30 13.8 96 11.44 13.2 4 6 1013.1 0 25.7 30.7 51.8 136.5 137.9 476.4
31/08 04:20 13.9 96 11.51 13.3 6 7 1013.1 0 25.8 30.8 52.1 137.1 138.7 479.3
31/08 04:10 13.9 96 11.51 13.3 7 9 1013.1 0 25.8 30.8 52.1 137.1 138.7 479.3
31/08 04:00 13.8 96 11.44 13.2 7 11 1013.1 0 25.7 30.7 51.8 136.5 137.9 476.4
31/08 03:50 13.7 96 11.37 13.1 6 9 1013.1 0 25.5 30.6 51.6 135.8 137.0 473.5
31/08 03:40 13.8 96 11.44 13.2 7 9 1013.1 0 25.7 30.7 51.8 136.5 137.9 476.4
31/08 03:30 13.5 96 11.23 12.9 7 9 1013.1 0 25.3 30.5 51.1 134.5 135.3 467.6
31/08 03:20 12.7 95 10.58 11.9 6 7 1013.1 0 23.9 29.6 48.7 128.3 127.3 439.5
31/08 03:10 12.8 95 10.64 12 7 9 1013.1 0 24.0 29.7 48.9 128.8 128.0 441.9
31/08 03:00 12.3 96 10.43 11.7 11 13 1013.1 0 23.6 29.5 48.3 127.2 125.8 434.2
31/08 02:50 10.9 93 9.25 9.9 11 11 1013.1 0 21.1 27.9 44.0 115.7 111.2 382.9
31/08 02:40 11 94 9.41 10.1 9 11 1013.1 0 21.5 28.1 44.7 117.4 113.3 390.3
31/08 02:30 10.9 93 9.25 9.8 9 11 1013.1 0 21.1 27.9 44.0 115.7 111.2 382.9
31/08 02:20 11.1 93 9.37 10 9 11 1013.1 0 21.4 28.0 44.4 116.8 112.6 387.8
31/08 02:10 11 93 9.31 9.9 9 9 1013.1 0 21.3 27.9 44.2 116.3 111.9 385.3
31/08 02:00 11.5 92 9.5 10.2 7 9 1013.1 0 21.6 28.1 44.8 117.7 113.8 392.2
31/08 01:50 11.8 92 9.68 10.5 4 4 1013.1 0 22.0 28.3 45.4 119.3 115.9 399.5
31/08 01:40 11.9 92 9.74 10.6 2 4 1013.1 0 22.1 28.4 45.6 119.8 116.6 402.0
31/08 01:30 11.9 93 9.85 10.8 4 6 1013.1 0 22.4 28.6 46.0 121.1 118.2 407.4
31/08 01:20 11.6 93 9.67 10.5 4 6 1013.1 0 22.0 28.4 45.4 119.5 116.1 400.1
31/08 01:10 11.4 92 9.44 10.1 4 4 1013.1 0 21.5 28.0 44.6 117.1 113.1 389.7
31/08 01:00 11.9 93 9.85 10.8 4 6 1013.1 0 22.4 28.6 46.0 121.1 118.2 407.4
31/08 00:50 11.7 92 9.62 10.4 4 4 1013.1 0 21.9 28.2 45.2 118.7 115.2 397.1
31/08 00:40 11.9 93 9.85 10.8 2 4 1013.1 0 22.4 28.6 46.0 121.1 118.2 407.4
31/08 00:30 11.5 93 9.61 10.4 0 4 1013.1 0 21.9 28.3 45.2 118.9 115.4 397.6
31/08 00:20 11.5 93 9.61 10.4 4 4 1013.1 0 21.9 28.3 45.2 118.9 115.4 397.6
31/08 00:10 11.3 92 9.39 10 6 6 1013.1 0 21.4 28.0 44.4 116.7 112.6 387.8
31/08 00:00 11.3 93 9.49 10.2 7 7 1013.1 0 21.6 28.1 44.8 117.9 114.0 392.7
30/08 23:50 11.4 93 9.55 10.3 7 7 1013.1 0 21.8 28.2 45.0 118.4 114.7 395.2
30/08 23:40 11.5 93 9.61 10.4 6 6 1013.1 0 21.9 28.3 45.2 118.9 115.4 397.6
30/08 23:30 11.7 93 9.73 10.6 6 7 1013.1 0 22.1 28.4 45.6 120.0 116.8 402.5
30/08 23:20 12 94 10.02 11 6 7 1013.1 0 22.7 28.8 46.7 122.9 120.4 415.3
30/08 23:10 11.7 93 9.73 10.6 7 7 1013.1 0 22.1 28.4 45.6 120.0 116.8 402.5
30/08 23:00 11.7 93 9.73 10.6 7 9 1013.1 0 22.1 28.4 45.6 120.0 116.8 402.5
30/08 22:50 11.8 93 9.79 10.7 7 7 1013.1 0 22.2 28.5 45.8 120.5 117.5 405.0
30/08 22:40 11.7 93 9.73 10.6 6 7 1013.1 0 22.1 28.4 45.6 120.0 116.8 402.5
30/08 22:30 11.7 92 9.62 10.4 6 7 1013.1 0 21.9 28.2 45.2 118.7 115.2 397.1
30/08 22:20 12 92 9.81 10.7 6 7 1013.1 0 22.3 28.5 45.8 120.5 117.5 404.9
30/08 22:10 12 93 9.91 10.9 9 9 1013.1 0 22.5 28.6 46.2 121.6 118.9 409.9
30/08 22:00 12.3 93 10.1 11.2 7 9 1013.1 0 22.9 28.9 46.9 123.3 121.1 417.7
30/08 21:50 12 93 9.91 10.9 9 9 1013.1 0 22.5 28.6 46.2 121.6 118.9 409.9
30/08 21:40 11.9 90 9.53 10.4 9 9 1013.1 0 21.7 28.0 44.7 117.4 113.7 391.6
30/08 21:30 12.3 90 9.77 10.7 7 9 1013.1 0 22.2 28.3 45.5 119.5 116.4 401.4
30/08 21:20 12.7 90 10.02 11.1 7 9 1013.1 0 22.7 28.6 46.3 121.8 119.3 411.6
30/08 21:10 13.1 90 10.27 11.5 6 7 1013.1 0 23.2 28.9 47.1 124.0 122.2 421.8
30/08 21:00 13.1 90 10.27 11.5 7 7 1013.1 0 23.2 28.9 47.1 124.0 122.2 421.8
30/08 20:50 13 90 10.21 11.4 6 7 1013.1 0 23.1 28.8 46.9 123.5 121.5 419.3
30/08 20:40 13.4 92 10.7 12.1 6 6 1013.1 0 24.1 29.6 48.8 128.5 127.9 441.5
30/08 20:30 12.7 91 10.13 11.3 7 9 1013.1 0 22.9 28.8 46.8 123.0 120.9 417.0
30/08 20:20 12.6 92 10.18 11.3 7 9 1013.1 0 23.0 28.9 47.0 123.8 121.8 420.0
30/08 20:10 12.7 91 10.13 11.3 6 7 1013.1 0 22.9 28.8 46.8 123.0 120.9 417.0
30/08 20:00 13.1 90 10.27 11.5 7 9 1013.1 0 23.2 28.9 47.1 124.0 122.2 421.8
30/08 19:50 13.4 92 10.7 12.1 9 9 1013.1 0 24.1 29.6 48.8 128.5 127.9 441.5
30/08 19:40 13.4 91 10.58 11.9 9 9 1013.1 0 23.9 29.3 48.3 127.1 126.2 435.5
30/08 19:30 13.7 91 10.78 12.3 11 11 1013.1 0 24.3 29.6 49.0 128.9 128.5 443.7
30/08 19:20 13.9 90 10.79 12.3 11 13 1013.1 0 24.3 29.5 48.9 128.7 128.3 443.1
30/08 19:10 14.3 89 10.93 12.5 11 13 1013.1 0 24.6 29.6 49.2 129.6 129.6 447.7
30/08 19:00 14.6 88 11.01 12.6 13 15 1013.1 0 24.7 29.7 49.4 130.1 130.3 450.0
30/08 18:50 14.9 88 11.22 12.9 13 13 1013.1 0 25.1 29.9 50.1 132.0 132.7 458.6
30/08 18:40 15 88 11.28 13 9 11 1013.1 0 25.3 30.0 50.3 132.5 133.4 461.0
30/08 18:30 15.3 87 11.36 13.2 9 11 1013.1 0 25.4 30.1 50.5 132.9 134.0 463.2
30/08 18:20 15.9 85 11.51 13.4 11 13 1013.1 0 25.7 30.1 50.7 133.6 135.1 467.0
30/08 18:10 16.5 84 11.79 13.8 15 17 1013.1 0 26.3 30.4 51.5 135.8 138.0 477.2
30/08 18:00 16.9 83 11.94 14 11 15 1013.1 0 26.6 30.5 51.9 136.8 139.4 482.2
30/08 17:50 17.9 80 12.21 14.4 11 13 1013.1 0 27.1 30.6 52.4 138.2 141.4 489.2
30/08 17:40 18.8 75 12.08 14.3 13 17 1013.1 0 26.7 30.1 51.3 135.1 137.9 477.2
30/08 17:30 19.2 76 12.53 14.9 13 17 1013.1 0 27.7 30.7 52.9 139.5 143.4 496.6
30/08 17:20 19.4 74 12.35 14.6 13 17 1013.1 0 27.3 30.3 52.0 137.1 140.6 486.6

Last Refresh: 31-Aug-2026 11:38:36

Bureau of Meteorology